sensor_id;sensor_type;location;lat;lon;timestamp;temperature;humidity
18950;DHT22;9608;49.288;8.130;2023-04-25T00:02:21;9.40;99.90
18950;DHT22;9608;49.288;8.130;2023-04-25T00:04:47;9.30;99.90
18950;DHT22;9608;49.288;8.130;2023-04-25T00:07:15;9.40;99.90
18950;DHT22;9608;49.288;8.130;2023-04-25T00:09:42;9.40;99.90
18950;DHT22;9608;49.288;8.130;2023-04-25T00:12:08;9.40;99.90
18950;DHT22;9608;49.288;8.130;2023-04-25T00:14:36;9.40;99.90
18950;DHT22;9608;49.288;8.130;2023-04-25T00:17:03;9.40;99.90
18950;DHT22;9608;49.288;8.130;2023-04-25T00:19:31;9.30;99.90
18950;DHT22;9608;49.288;8.130;2023-04-25T00:21:58;9.30;99.90
18950;DHT22;9608;49.288;8.130;2023-04-25T00:24:24;9.40;99.90
18950;DHT22;9608;49.288;8.130;2023-04-25T00:26:51;9.40;99.90
18950;DHT22;9608;49.288;8.130;2023-04-25T00:29:18;9.50;99.90
18950;DHT22;9608;49.288;8.130;2023-04-25T00:31:46;9.60;99.90
18950;DHT22;9608;49.288;8.130;2023-04-25T00:34:12;9.50;99.90
18950;DHT22;9608;49.288;8.130;2023-04-25T00:36:39;9.50;99.90
18950;DHT22;9608;49.288;8.130;2023-04-25T00:39:06;9.60;99.90
18950;DHT22;9608;49.288;8.130;2023-04-25T00:41:33;9.50;99.90
18950;DHT22;9608;49.288;8.130;2023-04-25T00:44:00;9.40;99.90
18950;DHT22;9608;49.288;8.130;2023-04-25T00:46:28;9.30;99.90
18950;DHT22;9608;49.288;8.130;2023-04-25T00:48:56;9.40;99.90
18950;DHT22;9608;49.288;8.130;2023-04-25T00:51:23;9.20;99.90
18950;DHT22;9608;49.288;8.130;2023-04-25T00:53:51;9.10;99.90
18950;DHT22;9608;49.288;8.130;2023-04-25T00:56:17;9.20;99.90
18950;DHT22;9608;49.288;8.130;2023-04-25T00:58:44;9.20;99.90
18950;DHT22;9608;49.288;8.130;2023-04-25T01:01:11;9.20;99.90
18950;DHT22;9608;49.288;8.130;2023-04-25T01:03:39;9.10;99.90
18950;DHT22;9608;49.288;8.130;2023-04-25T01:06:09;9.10;99.90
18950;DHT22;9608;49.288;8.130;2023-04-25T01:08:37;9.30;99.90
18950;DHT22;9608;49.288;8.130;2023-04-25T01:11:04;9.40;99.90
18950;DHT22;9608;49.288;8.130;2023-04-25T01:13:31;9.40;99.90
18950;DHT22;9608;49.288;8.130;2023-04-25T01:15:58;9.30;99.90
18950;DHT22;9608;49.288;8.130;2023-04-25T01:18:25;9.20;99.90
18950;DHT22;9608;49.288;8.130;2023-04-25T01:20:53;9.20;99.90
18950;DHT22;9608;49.288;8.130;2023-04-25T01:23:21;9.30;99.90
18950;DHT22;9608;49.288;8.130;2023-04-25T01:25:49;9.20;99.90
18950;DHT22;9608;49.288;8.130;2023-04-25T01:28:16;9.10;99.90
18950;DHT22;9608;49.288;8.130;2023-04-25T01:30:43;9.20;99.90
18950;DHT22;9608;49.288;8.130;2023-04-25T01:33:10;9.30;99.90
18950;DHT22;9608;49.288;8.130;2023-04-25T01:35:37;9.10;99.90
18950;DHT22;9608;49.288;8.130;2023-04-25T01:38:04;9.10;99.90
18950;DHT22;9608;49.288;8.130;2023-04-25T01:40:33;9.10;99.90
18950;DHT22;9608;49.288;8.130;2023-04-25T01:43:01;9.10;99.90
18950;DHT22;9608;49.288;8.130;2023-04-25T01:45:28;9.20;99.90
18950;DHT22;9608;49.288;8.130;2023-04-25T01:47:54;9.20;99.90
18950;DHT22;9608;49.288;8.130;2023-04-25T01:50:24;9.20;99.90
18950;DHT22;9608;49.288;8.130;2023-04-25T01:52:51;9.20;99.90
18950;DHT22;9608;49.288;8.130;2023-04-25T01:55:19;9.30;99.90
18950;DHT22;9608;49.288;8.130;2023-04-25T01:57:47;9.30;99.90
18950;DHT22;9608;49.288;8.130;2023-04-25T02:00:14;9.20;99.90
18950;DHT22;9608;49.288;8.130;2023-04-25T02:02:41;9.20;99.90
18950;DHT22;9608;49.288;8.130;2023-04-25T02:05:07;9.20;99.90
18950;DHT22;9608;49.288;8.130;2023-04-25T02:07:34;9.20;99.90
18950;DHT22;9608;49.288;8.130;2023-04-25T02:10:01;9.30;99.90
18950;DHT22;9608;49.288;8.130;2023-04-25T02:12:28;9.30;99.90
18950;DHT22;9608;49.288;8.130;2023-04-25T02:14:57;9.40;99.90
18950;DHT22;9608;49.288;8.130;2023-04-25T02:17:24;9.50;99.90
18950;DHT22;9608;49.288;8.130;2023-04-25T02:19:51;9.50;99.90
18950;DHT22;9608;49.288;8.130;2023-04-25T02:22:18;9.30;99.90
18950;DHT22;9608;49.288;8.130;2023-04-25T02:24:46;9.10;99.90
18950;DHT22;9608;49.288;8.130;2023-04-25T02:27:13;9.10;99.90
18950;DHT22;9608;49.288;8.130;2023-04-25T02:29:39;9.10;99.90
18950;DHT22;9608;49.288;8.130;2023-04-25T02:32:07;9.10;99.90
18950;DHT22;9608;49.288;8.130;2023-04-25T02:34:34;9.10;99.90
18950;DHT22;9608;49.288;8.130;2023-04-25T02:37:00;9.10;99.90
18950;DHT22;9608;49.288;8.130;2023-04-25T02:39:27;9.10;99.90
18950;DHT22;9608;49.288;8.130;2023-04-25T02:41:54;9.00;99.90
18950;DHT22;9608;49.288;8.130;2023-04-25T02:44:20;8.80;99.90
18950;DHT22;9608;49.288;8.130;2023-04-25T02:46:47;8.70;99.90
18950;DHT22;9608;49.288;8.130;2023-04-25T02:49:15;8.70;99.90
18950;DHT22;9608;49.288;8.130;2023-04-25T02:51:42;8.80;99.90
18950;DHT22;9608;49.288;8.130;2023-04-25T02:54:08;8.70;99.90
18950;DHT22;9608;49.288;8.130;2023-04-25T02:56:35;8.70;99.90
18950;DHT22;9608;49.288;8.130;2023-04-25T02:59:02;8.70;99.90
18950;DHT22;9608;49.288;8.130;2023-04-25T03:01:29;8.50;99.90
18950;DHT22;9608;49.288;8.130;2023-04-25T03:03:55;8.50;99.90
18950;DHT22;9608;49.288;8.130;2023-04-25T03:06:23;8.60;99.90
18950;DHT22;9608;49.288;8.130;2023-04-25T03:08:50;8.60;99.90
18950;DHT22;9608;49.288;8.130;2023-04-25T03:11:17;8.40;99.90
18950;DHT22;9608;49.288;8.130;2023-04-25T03:13:48;8.20;99.90
18950;DHT22;9608;49.288;8.130;2023-04-25T03:16:15;8.20;99.90
18950;DHT22;9608;49.288;8.130;2023-04-25T03:18:41;8.10;99.90
18950;DHT22;9608;49.288;8.130;2023-04-25T03:21:08;8.00;99.90
18950;DHT22;9608;49.288;8.130;2023-04-25T03:23:36;8.00;99.90
18950;DHT22;9608;49.288;8.130;2023-04-25T03:26:03;7.90;99.90
18950;DHT22;9608;49.288;8.130;2023-04-25T03:28:30;7.90;99.90
18950;DHT22;9608;49.288;8.130;2023-04-25T03:30:56;7.90;99.90
18950;DHT22;9608;49.288;8.130;2023-04-25T03:33:23;7.80;99.90
18950;DHT22;9608;49.288;8.130;2023-04-25T03:35:50;7.70;99.90
18950;DHT22;9608;49.288;8.130;2023-04-25T03:38:17;7.60;99.90
18950;DHT22;9608;49.288;8.130;2023-04-25T03:40:45;7.60;99.90
18950;DHT22;9608;49.288;8.130;2023-04-25T03:43:12;7.60;99.90
18950;DHT22;9608;49.288;8.130;2023-04-25T03:45:38;7.60;99.90
18950;DHT22;9608;49.288;8.130;2023-04-25T03:48:05;7.80;99.90
18950;DHT22;9608;49.288;8.130;2023-04-25T03:50:32;7.70;99.90
18950;DHT22;9608;49.288;8.130;2023-04-25T03:52:59;7.60;99.90
18950;DHT22;9608;49.288;8.130;2023-04-25T03:55:25;7.60;99.90
18950;DHT22;9608;49.288;8.130;2023-04-25T03:57:53;7.50;99.90
18950;DHT22;9608;49.288;8.130;2023-04-25T04:00:20;7.40;99.90
18950;DHT22;9608;49.288;8.130;2023-04-25T04:02:47;7.40;99.90
18950;DHT22;9608;49.288;8.130;2023-04-25T04:05:13;7.40;99.90
18950;DHT22;9608;49.288;8.130;2023-04-25T04:07:40;7.60;99.90
18950;DHT22;9608;49.288;8.130;2023-04-25T04:10:08;7.70;99.90
18950;DHT22;9608;49.288;8.130;2023-04-25T04:12:35;7.70;99.90
18950;DHT22;9608;49.288;8.130;2023-04-25T04:15:04;7.60;99.90
18950;DHT22;9608;49.288;8.130;2023-04-25T04:17:32;7.50;99.90
18950;DHT22;9608;49.288;8.130;2023-04-25T04:19:59;7.50;99.90
18950;DHT22;9608;49.288;8.130;2023-04-25T04:22:25;7.60;99.90
18950;DHT22;9608;49.288;8.130;2023-04-25T04:24:52;7.40;99.90
18950;DHT22;9608;49.288;8.130;2023-04-25T04:27:19;7.60;99.90
18950;DHT22;9608;49.288;8.130;2023-04-25T04:29:47;7.70;99.90
18950;DHT22;9608;49.288;8.130;2023-04-25T04:32:15;7.80;99.90
18950;DHT22;9608;49.288;8.130;2023-04-25T04:34:42;7.90;99.90
18950;DHT22;9608;49.288;8.130;2023-04-25T04:37:10;8.00;99.90
18950;DHT22;9608;49.288;8.130;2023-04-25T04:39:38;8.10;99.90
18950;DHT22;9608;49.288;8.130;2023-04-25T04:42:05;8.20;99.90
18950;DHT22;9608;49.288;8.130;2023-04-25T04:44:32;8.20;99.90
18950;DHT22;9608;49.288;8.130;2023-04-25T04:47:01;8.30;99.90
18950;DHT22;9608;49.288;8.130;2023-04-25T04:49:30;8.30;99.90
18950;DHT22;9608;49.288;8.130;2023-04-25T04:51:57;8.40;99.90
18950;DHT22;9608;49.288;8.130;2023-04-25T04:54:25;8.40;99.90
18950;DHT22;9608;49.288;8.130;2023-04-25T04:56:52;8.50;99.90
18950;DHT22;9608;49.288;8.130;2023-04-25T04:59:19;8.60;99.90
18950;DHT22;9608;49.288;8.130;2023-04-25T05:01:45;8.70;99.90
18950;DHT22;9608;49.288;8.130;2023-04-25T05:04:12;8.80;99.90
18950;DHT22;9608;49.288;8.130;2023-04-25T05:06:40;8.90;99.90
18950;DHT22;9608;49.288;8.130;2023-04-25T05:09:07;9.20;99.90
18950;DHT22;9608;49.288;8.130;2023-04-25T05:11:33;9.40;99.90
18950;DHT22;9608;49.288;8.130;2023-04-25T05:14:00;9.50;99.90
18950;DHT22;9608;49.288;8.130;2023-04-25T05:16:27;9.60;99.90
18950;DHT22;9608;49.288;8.130;2023-04-25T05:18:53;9.80;99.90
18950;DHT22;9608;49.288;8.130;2023-04-25T05:21:20;9.80;99.90
18950;DHT22;9608;49.288;8.130;2023-04-25T05:23:49;9.80;99.90
18950;DHT22;9608;49.288;8.130;2023-04-25T05:26:16;9.80;99.90
18950;DHT22;9608;49.288;8.130;2023-04-25T05:28:42;9.70;99.90
18950;DHT22;9608;49.288;8.130;2023-04-25T05:31:09;9.80;99.90
18950;DHT22;9608;49.288;8.130;2023-04-25T05:33:36;9.80;99.90
18950;DHT22;9608;49.288;8.130;2023-04-25T05:36:03;9.80;99.90
18950;DHT22;9608;49.288;8.130;2023-04-25T05:38:30;9.80;99.90
18950;DHT22;9608;49.288;8.130;2023-04-25T05:40:58;9.80;99.90
18950;DHT22;9608;49.288;8.130;2023-04-25T05:43:25;9.60;99.90
18950;DHT22;9608;49.288;8.130;2023-04-25T05:45:52;9.60;99.90
18950;DHT22;9608;49.288;8.130;2023-04-25T05:48:18;9.50;99.90
18950;DHT22;9608;49.288;8.130;2023-04-25T05:50:45;9.50;99.90
18950;DHT22;9608;49.288;8.130;2023-04-25T05:53:12;9.60;99.90
18950;DHT22;9608;49.288;8.130;2023-04-25T05:55:38;9.80;99.90
18950;DHT22;9608;49.288;8.130;2023-04-25T05:58:07;9.70;99.90
18950;DHT22;9608;49.288;8.130;2023-04-25T06:00:33;9.60;99.90
18950;DHT22;9608;49.288;8.130;2023-04-25T06:03:01;9.60;99.90
18950;DHT22;9608;49.288;8.130;2023-04-25T06:05:28;9.70;99.90
18950;DHT22;9608;49.288;8.130;2023-04-25T06:07:55;9.70;99.90
18950;DHT22;9608;49.288;8.130;2023-04-25T06:10:22;9.60;99.90
18950;DHT22;9608;49.288;8.130;2023-04-25T06:12:49;9.50;99.90
18950;DHT22;9608;49.288;8.130;2023-04-25T06:15:17;9.40;99.90
18950;DHT22;9608;49.288;8.130;2023-04-25T06:17:44;9.40;99.90
18950;DHT22;9608;49.288;8.130;2023-04-25T06:20:11;9.50;99.90
18950;DHT22;9608;49.288;8.130;2023-04-25T06:22:38;9.60;99.90
18950;DHT22;9608;49.288;8.130;2023-04-25T06:25:05;9.60;99.90
18950;DHT22;9608;49.288;8.130;2023-04-25T06:27:32;9.50;99.90
18950;DHT22;9608;49.288;8.130;2023-04-25T06:29:59;9.40;99.90
18950;DHT22;9608;49.288;8.130;2023-04-25T06:32:28;9.40;99.90
18950;DHT22;9608;49.288;8.130;2023-04-25T06:34:55;9.50;99.90
18950;DHT22;9608;49.288;8.130;2023-04-25T06:37:22;9.20;99.90
18950;DHT22;9608;49.288;8.130;2023-04-25T06:39:49;8.90;99.90
18950;DHT22;9608;49.288;8.130;2023-04-25T06:42:16;8.70;99.90
18950;DHT22;9608;49.288;8.130;2023-04-25T06:44:43;8.80;99.90
18950;DHT22;9608;49.288;8.130;2023-04-25T06:47:10;8.90;99.90
18950;DHT22;9608;49.288;8.130;2023-04-25T06:49:39;9.10;99.90
18950;DHT22;9608;49.288;8.130;2023-04-25T06:52:07;9.20;99.90
18950;DHT22;9608;49.288;8.130;2023-04-25T06:54:36;9.30;99.90
18950;DHT22;9608;49.288;8.130;2023-04-25T06:57:03;9.30;99.90
18950;DHT22;9608;49.288;8.130;2023-04-25T06:59:30;9.40;99.90
18950;DHT22;9608;49.288;8.130;2023-04-25T07:01:58;9.30;99.90
18950;DHT22;9608;49.288;8.130;2023-04-25T07:04:25;9.10;99.90
18950;DHT22;9608;49.288;8.130;2023-04-25T07:06:55;9.20;99.90
18950;DHT22;9608;49.288;8.130;2023-04-25T07:09:22;9.30;99.90
18950;DHT22;9608;49.288;8.130;2023-04-25T07:11:49;9.20;99.90
18950;DHT22;9608;49.288;8.130;2023-04-25T07:14:17;9.20;99.90
18950;DHT22;9608;49.288;8.130;2023-04-25T07:16:44;9.20;99.90
18950;DHT22;9608;49.288;8.130;2023-04-25T07:19:11;9.10;99.90
18950;DHT22;9608;49.288;8.130;2023-04-25T07:21:37;9.10;99.90
18950;DHT22;9608;49.288;8.130;2023-04-25T07:24:08;9.20;99.90
18950;DHT22;9608;49.288;8.130;2023-04-25T07:26:35;9.20;99.90
18950;DHT22;9608;49.288;8.130;2023-04-25T07:29:02;9.10;99.90
18950;DHT22;9608;49.288;8.130;2023-04-25T07:31:30;9.10;99.90
18950;DHT22;9608;49.288;8.130;2023-04-25T07:33:57;9.10;99.90
18950;DHT22;9608;49.288;8.130;2023-04-25T07:36:25;9.10;99.90
18950;DHT22;9608;49.288;8.130;2023-04-25T07:38:56;9.20;99.90
18950;DHT22;9608;49.288;8.130;2023-04-25T07:41:24;9.20;99.90
18950;DHT22;9608;49.288;8.130;2023-04-25T07:43:51;9.40;99.90
18950;DHT22;9608;49.288;8.130;2023-04-25T07:46:18;9.50;99.90
18950;DHT22;9608;49.288;8.130;2023-04-25T07:48:45;9.50;99.90
18950;DHT22;9608;49.288;8.130;2023-04-25T07:51:12;9.50;99.90
18950;DHT22;9608;49.288;8.130;2023-04-25T07:53:39;9.40;99.90
18950;DHT22;9608;49.288;8.130;2023-04-25T07:56:07;8.90;99.90
18950;DHT22;9608;49.288;8.130;2023-04-25T07:58:37;8.60;99.90
18950;DHT22;9608;49.288;8.130;2023-04-25T08:01:05;8.30;99.90
18950;DHT22;9608;49.288;8.130;2023-04-25T08:03:33;8.00;99.90
18950;DHT22;9608;49.288;8.130;2023-04-25T08:06:00;7.80;99.90
18950;DHT22;9608;49.288;8.130;2023-04-25T08:08:27;7.80;99.90
18950;DHT22;9608;49.288;8.130;2023-04-25T08:10:54;7.80;99.90
18950;DHT22;9608;49.288;8.130;2023-04-25T08:13:21;7.80;99.90
18950;DHT22;9608;49.288;8.130;2023-04-25T08:15:49;7.60;99.90
18950;DHT22;9608;49.288;8.130;2023-04-25T08:18:16;7.40;99.90
18950;DHT22;9608;49.288;8.130;2023-04-25T08:20:43;7.40;99.90
18950;DHT22;9608;49.288;8.130;2023-04-25T08:23:10;7.40;99.90
18950;DHT22;9608;49.288;8.130;2023-04-25T08:25:37;7.30;99.90
18950;DHT22;9608;49.288;8.130;2023-04-25T08:28:05;7.30;99.90
18950;DHT22;9608;49.288;8.130;2023-04-25T08:30:32;7.20;99.90
18950;DHT22;9608;49.288;8.130;2023-04-25T08:33:01;7.30;99.90
18950;DHT22;9608;49.288;8.130;2023-04-25T08:35:28;7.30;99.90
18950;DHT22;9608;49.288;8.130;2023-04-25T08:37:55;7.30;99.90
18950;DHT22;9608;49.288;8.130;2023-04-25T08:40:23;7.20;99.90
18950;DHT22;9608;49.288;8.130;2023-04-25T08:42:57;7.20;99.90
18950;DHT22;9608;49.288;8.130;2023-04-25T08:45:26;7.30;99.90
18950;DHT22;9608;49.288;8.130;2023-04-25T08:47:54;7.40;99.90
18950;DHT22;9608;49.288;8.130;2023-04-25T08:50:24;7.40;99.90
18950;DHT22;9608;49.288;8.130;2023-04-25T08:52:53;7.50;99.90
18950;DHT22;9608;49.288;8.130;2023-04-25T08:55:22;7.60;99.90
18950;DHT22;9608;49.288;8.130;2023-04-25T08:57:49;7.70;99.90
18950;DHT22;9608;49.288;8.130;2023-04-25T09:00:18;7.60;99.90
18950;DHT22;9608;49.288;8.130;2023-04-25T09:02:46;7.60;99.90
18950;DHT22;9608;49.288;8.130;2023-04-25T09:05:14;7.70;99.90
18950;DHT22;9608;49.288;8.130;2023-04-25T09:07:44;7.70;99.90
18950;DHT22;9608;49.288;8.130;2023-04-25T09:10:11;7.80;99.90
18950;DHT22;9608;49.288;8.130;2023-04-25T09:12:39;7.70;99.90
18950;DHT22;9608;49.288;8.130;2023-04-25T09:15:08;7.70;99.90
18950;DHT22;9608;49.288;8.130;2023-04-25T09:17:36;7.80;99.90
18950;DHT22;9608;49.288;8.130;2023-04-25T09:20:07;8.00;99.90
18950;DHT22;9608;49.288;8.130;2023-04-25T09:22:36;8.10;99.90
18950;DHT22;9608;49.288;8.130;2023-04-25T09:25:08;8.20;99.90
18950;DHT22;9608;49.288;8.130;2023-04-25T09:27:49;8.20;99.90
18950;DHT22;9608;49.288;8.130;2023-04-25T09:30:18;8.20;99.90
18950;DHT22;9608;49.288;8.130;2023-04-25T09:32:45;8.30;99.90
18950;DHT22;9608;49.288;8.130;2023-04-25T09:35:23;8.30;99.90
18950;DHT22;9608;49.288;8.130;2023-04-25T09:37:50;8.40;99.90
18950;DHT22;9608;49.288;8.130;2023-04-25T09:40:19;8.60;99.90
18950;DHT22;9608;49.288;8.130;2023-04-25T09:42:46;8.70;99.90
18950;DHT22;9608;49.288;8.130;2023-04-25T09:45:14;8.80;99.90
18950;DHT22;9608;49.288;8.130;2023-04-25T09:47:41;8.80;99.90
18950;DHT22;9608;49.288;8.130;2023-04-25T09:50:14;8.80;99.90
18950;DHT22;9608;49.288;8.130;2023-04-25T09:52:43;9.00;99.90
18950;DHT22;9608;49.288;8.130;2023-04-25T09:55:10;9.20;99.90
18950;DHT22;9608;49.288;8.130;2023-04-25T09:57:41;9.20;99.90
18950;DHT22;9608;49.288;8.130;2023-04-25T10:00:11;9.30;99.90
18950;DHT22;9608;49.288;8.130;2023-04-25T10:02:39;9.30;99.90
18950;DHT22;9608;49.288;8.130;2023-04-25T10:05:07;9.30;99.90
18950;DHT22;9608;49.288;8.130;2023-04-25T10:07:36;9.50;99.90
18950;DHT22;9608;49.288;8.130;2023-04-25T10:10:06;9.60;99.90
18950;DHT22;9608;49.288;8.130;2023-04-25T10:12:34;9.60;99.90
18950;DHT22;9608;49.288;8.130;2023-04-25T10:15:08;9.40;99.90
18950;DHT22;9608;49.288;8.130;2023-04-25T10:17:40;9.20;99.90
18950;DHT22;9608;49.288;8.130;2023-04-25T10:20:08;9.00;99.90
18950;DHT22;9608;49.288;8.130;2023-04-25T10:22:39;8.80;99.90
18950;DHT22;9608;49.288;8.130;2023-04-25T10:25:08;8.60;99.90
18950;DHT22;9608;49.288;8.130;2023-04-25T10:27:37;8.60;99.90
18950;DHT22;9608;49.288;8.130;2023-04-25T10:30:14;8.70;99.90
18950;DHT22;9608;49.288;8.130;2023-04-25T10:32:42;8.80;99.90
18950;DHT22;9608;49.288;8.130;2023-04-25T10:35:12;9.00;99.90
18950;DHT22;9608;49.288;8.130;2023-04-25T10:37:57;9.30;99.90
18950;DHT22;9608;49.288;8.130;2023-04-25T10:40:25;9.60;99.90
18950;DHT22;9608;49.288;8.130;2023-04-25T10:42:53;10.00;99.90
18950;DHT22;9608;49.288;8.130;2023-04-25T10:45:23;10.20;99.90
18950;DHT22;9608;49.288;8.130;2023-04-25T10:47:50;10.40;99.90
18950;DHT22;9608;49.288;8.130;2023-04-25T10:50:17;10.60;99.90
18950;DHT22;9608;49.288;8.130;2023-04-25T10:52:44;10.90;99.90
18950;DHT22;9608;49.288;8.130;2023-04-25T10:55:11;11.20;99.90
18950;DHT22;9608;49.288;8.130;2023-04-25T10:57:40;11.60;99.90
18950;DHT22;9608;49.288;8.130;2023-04-25T11:00:11;12.00;99.90
18950;DHT22;9608;49.288;8.130;2023-04-25T11:02:43;12.20;99.90
18950;DHT22;9608;49.288;8.130;2023-04-25T11:05:20;12.30;99.90
18950;DHT22;9608;49.288;8.130;2023-04-25T11:07:53;12.40;99.90
18950;DHT22;9608;49.288;8.130;2023-04-25T11:10:26;12.40;99.90
18950;DHT22;9608;49.288;8.130;2023-04-25T11:12:54;12.50;99.90
18950;DHT22;9608;49.288;8.130;2023-04-25T11:15:22;12.70;99.90
18950;DHT22;9608;49.288;8.130;2023-04-25T11:17:55;12.90;99.90
18950;DHT22;9608;49.288;8.130;2023-04-25T11:20:25;13.30;99.90
18950;DHT22;9608;49.288;8.130;2023-04-25T11:22:54;13.60;99.90
18950;DHT22;9608;49.288;8.130;2023-04-25T11:25:24;13.80;99.90
18950;DHT22;9608;49.288;8.130;2023-04-25T11:27:52;13.80;99.90
18950;DHT22;9608;49.288;8.130;2023-04-25T11:30:21;13.80;99.90
18950;DHT22;9608;49.288;8.130;2023-04-25T11:32:48;13.80;99.90
18950;DHT22;9608;49.288;8.130;2023-04-25T11:35:16;13.90;99.90
18950;DHT22;9608;49.288;8.130;2023-04-25T11:37:44;14.00;99.90
18950;DHT22;9608;49.288;8.130;2023-04-25T11:40:11;13.80;99.90
18950;DHT22;9608;49.288;8.130;2023-04-25T11:42:38;13.80;99.90
18950;DHT22;9608;49.288;8.130;2023-04-25T11:45:06;13.80;99.90
18950;DHT22;9608;49.288;8.130;2023-04-25T11:47:34;13.80;99.90
18950;DHT22;9608;49.288;8.130;2023-04-25T11:50:01;13.90;99.90
18950;DHT22;9608;49.288;8.130;2023-04-25T11:52:40;14.10;99.90
18950;DHT22;9608;49.288;8.130;2023-04-25T11:55:09;14.20;99.90
18950;DHT22;9608;49.288;8.130;2023-04-25T11:57:37;14.20;99.90
18950;DHT22;9608;49.288;8.130;2023-04-25T12:00:09;13.90;99.90
18950;DHT22;9608;49.288;8.130;2023-04-25T12:02:40;13.80;99.90
18950;DHT22;9608;49.288;8.130;2023-04-25T12:05:07;13.70;99.90
18950;DHT22;9608;49.288;8.130;2023-04-25T12:07:35;13.50;99.90
18950;DHT22;9608;49.288;8.130;2023-04-25T12:10:06;13.60;99.90
18950;DHT22;9608;49.288;8.130;2023-04-25T12:12:33;13.90;99.90
18950;DHT22;9608;49.288;8.130;2023-04-25T12:15:09;13.90;99.90
18950;DHT22;9608;49.288;8.130;2023-04-25T12:17:36;13.90;99.90
18950;DHT22;9608;49.288;8.130;2023-04-25T12:20:07;14.00;99.90
18950;DHT22;9608;49.288;8.130;2023-04-25T12:22:34;14.10;99.90
18950;DHT22;9608;49.288;8.130;2023-04-25T12:25:01;13.90;99.90
18950;DHT22;9608;49.288;8.130;2023-04-25T12:27:31;13.70;99.90
18950;DHT22;9608;49.288;8.130;2023-04-25T12:29:58;13.90;99.90
18950;DHT22;9608;49.288;8.130;2023-04-25T12:32:24;13.90;99.90
18950;DHT22;9608;49.288;8.130;2023-04-25T12:34:51;14.00;99.90
18950;DHT22;9608;49.288;8.130;2023-04-25T12:37:18;14.20;99.90
18950;DHT22;9608;49.288;8.130;2023-04-25T12:39:45;14.30;99.90
18950;DHT22;9608;49.288;8.130;2023-04-25T12:42:12;14.20;99.90
18950;DHT22;9608;49.288;8.130;2023-04-25T12:44:40;13.80;99.90
18950;DHT22;9608;49.288;8.130;2023-04-25T12:47:07;13.80;99.90
18950;DHT22;9608;49.288;8.130;2023-04-25T12:49:33;13.90;99.90
18950;DHT22;9608;49.288;8.130;2023-04-25T12:52:00;13.70;99.90
18950;DHT22;9608;49.288;8.130;2023-04-25T12:54:27;13.60;99.90
18950;DHT22;9608;49.288;8.130;2023-04-25T12:56:54;13.70;99.90
18950;DHT22;9608;49.288;8.130;2023-04-25T12:59:20;13.70;99.90
18950;DHT22;9608;49.288;8.130;2023-04-25T13:01:49;13.80;99.90
18950;DHT22;9608;49.288;8.130;2023-04-25T13:04:15;13.90;99.90
18950;DHT22;9608;49.288;8.130;2023-04-25T13:06:43;13.70;99.90
18950;DHT22;9608;49.288;8.130;2023-04-25T13:09:10;13.80;99.90
18950;DHT22;9608;49.288;8.130;2023-04-25T13:11:37;14.00;99.90
18950;DHT22;9608;49.288;8.130;2023-04-25T13:14:04;14.30;99.90
18950;DHT22;9608;49.288;8.130;2023-04-25T13:16:32;14.50;99.90
18950;DHT22;9608;49.288;8.130;2023-04-25T13:19:00;14.70;99.90
18950;DHT22;9608;49.288;8.130;2023-04-25T13:21:26;14.70;99.90
18950;DHT22;9608;49.288;8.130;2023-04-25T13:23:53;14.10;99.90
18950;DHT22;9608;49.288;8.130;2023-04-25T13:26:20;13.20;99.90
18950;DHT22;9608;49.288;8.130;2023-04-25T13:28:46;12.80;99.90
18950;DHT22;9608;49.288;8.130;2023-04-25T13:31:13;12.40;99.90
18950;DHT22;9608;49.288;8.130;2023-04-25T13:33:40;12.70;99.90
18950;DHT22;9608;49.288;8.130;2023-04-25T13:36:08;13.10;99.90
18950;DHT22;9608;49.288;8.130;2023-04-25T13:38:35;13.30;99.90
18950;DHT22;9608;49.288;8.130;2023-04-25T13:41:02;13.20;99.90
18950;DHT22;9608;49.288;8.130;2023-04-25T13:43:28;13.30;99.90
18950;DHT22;9608;49.288;8.130;2023-04-25T13:45:55;13.40;99.90
18950;DHT22;9608;49.288;8.130;2023-04-25T13:48:23;13.60;99.90
18950;DHT22;9608;49.288;8.130;2023-04-25T13:50:50;13.80;99.90
18950;DHT22;9608;49.288;8.130;2023-04-25T13:53:18;14.00;99.90
18950;DHT22;9608;49.288;8.130;2023-04-25T13:55:45;14.20;99.90
18950;DHT22;9608;49.288;8.130;2023-04-25T13:58:12;14.20;99.90
18950;DHT22;9608;49.288;8.130;2023-04-25T14:00:39;14.30;99.90
18950;DHT22;9608;49.288;8.130;2023-04-25T14:03:08;14.30;99.90
18950;DHT22;9608;49.288;8.130;2023-04-25T14:05:36;14.50;99.90
18950;DHT22;9608;49.288;8.130;2023-04-25T14:08:05;14.70;99.90
18950;DHT22;9608;49.288;8.130;2023-04-25T14:10:34;14.70;99.90
18950;DHT22;9608;49.288;8.130;2023-04-25T14:13:01;14.70;99.90
18950;DHT22;9608;49.288;8.130;2023-04-25T14:15:29;14.70;99.90
18950;DHT22;9608;49.288;8.130;2023-04-25T14:17:56;14.70;99.90
18950;DHT22;9608;49.288;8.130;2023-04-25T14:20:23;14.70;99.90
18950;DHT22;9608;49.288;8.130;2023-04-25T14:22:50;14.40;99.90
18950;DHT22;9608;49.288;8.130;2023-04-25T14:25:17;13.60;99.90
18950;DHT22;9608;49.288;8.130;2023-04-25T14:27:45;12.70;99.90
18950;DHT22;9608;49.288;8.130;2023-04-25T14:30:15;12.10;99.90
18950;DHT22;9608;49.288;8.130;2023-04-25T14:32:42;11.80;99.90
18950;DHT22;9608;49.288;8.130;2023-04-25T14:35:10;11.70;99.90
18950;DHT22;9608;49.288;8.130;2023-04-25T14:37:37;11.60;99.90
18950;DHT22;9608;49.288;8.130;2023-04-25T14:40:05;11.50;99.90
18950;DHT22;9608;49.288;8.130;2023-04-25T14:42:34;11.40;99.90
18950;DHT22;9608;49.288;8.130;2023-04-25T14:45:02;11.30;99.90
18950;DHT22;9608;49.288;8.130;2023-04-25T14:47:29;11.30;99.90
18950;DHT22;9608;49.288;8.130;2023-04-25T14:49:56;11.10;99.90
18950;DHT22;9608;49.288;8.130;2023-04-25T14:52:22;11.10;99.90
18950;DHT22;9608;49.288;8.130;2023-04-25T14:54:49;11.00;99.90
18950;DHT22;9608;49.288;8.130;2023-04-25T14:57:16;10.70;99.90
18950;DHT22;9608;49.288;8.130;2023-04-25T14:59:43;10.50;99.90
18950;DHT22;9608;49.288;8.130;2023-04-25T15:02:11;10.50;99.90
18950;DHT22;9608;49.288;8.130;2023-04-25T15:04:38;10.40;99.90
18950;DHT22;9608;49.288;8.130;2023-04-25T15:07:05;10.50;99.90
18950;DHT22;9608;49.288;8.130;2023-04-25T15:09:31;10.40;99.90
18950;DHT22;9608;49.288;8.130;2023-04-25T15:11:58;10.50;99.90
18950;DHT22;9608;49.288;8.130;2023-04-25T15:14:26;10.40;99.90
18950;DHT22;9608;49.288;8.130;2023-04-25T15:16:52;10.50;99.90
18950;DHT22;9608;49.288;8.130;2023-04-25T15:19:20;10.70;99.90
18950;DHT22;9608;49.288;8.130;2023-04-25T15:21:47;11.00;99.90
18950;DHT22;9608;49.288;8.130;2023-04-25T15:24:14;11.10;99.90
18950;DHT22;9608;49.288;8.130;2023-04-25T15:26:41;11.20;99.90
18950;DHT22;9608;49.288;8.130;2023-04-25T15:29:08;11.30;99.90
18950;DHT22;9608;49.288;8.130;2023-04-25T15:31:35;11.50;99.90
18950;DHT22;9608;49.288;8.130;2023-04-25T15:34:02;11.50;99.90
18950;DHT22;9608;49.288;8.130;2023-04-25T15:36:30;11.70;99.90
18950;DHT22;9608;49.288;8.130;2023-04-25T15:38:56;11.70;99.90
18950;DHT22;9608;49.288;8.130;2023-04-25T15:41:23;11.90;99.90
18950;DHT22;9608;49.288;8.130;2023-04-25T15:43:52;12.20;99.90
18950;DHT22;9608;49.288;8.130;2023-04-25T15:46:18;12.50;99.90
18950;DHT22;9608;49.288;8.130;2023-04-25T15:48:46;12.60;99.90
18950;DHT22;9608;49.288;8.130;2023-04-25T15:51:13;12.70;99.90
18950;DHT22;9608;49.288;8.130;2023-04-25T15:53:41;12.70;99.90
18950;DHT22;9608;49.288;8.130;2023-04-25T15:56:08;12.80;99.90
18950;DHT22;9608;49.288;8.130;2023-04-25T15:58:34;12.80;99.90
18950;DHT22;9608;49.288;8.130;2023-04-25T16:01:02;12.80;99.90